Barnesville, North Carolina
Current Conditions -  °F | °C
As of 8:16 PM on Saturday 20 Dec 2014 (Local Time) from KLBT Reporting Station
Haze Haze  
Wind Chill: 39°   Ceiling: 800
Heat Index: 42°   Visibility: 5mi
Dew Point: 38°   Wind: 5mph
Humidity: 85%   Direction: 70°ENE
Pressure: 30.27"   Gusts: NA
Location:  34.41°N, 79.05°W
Report Text: KLBT 210116Z AUTO 07004KT 5SM BR BKN008 BKN030 OVC070 06/03 A3027 RMK AO2 T00560033
Loading
Personal Weather Stations






























Interactive Weather Map New forecast layout! Learn more

10-Day Weather Forecast

Advertisements
Track Severe Weather on mobile